Details for Delta Airlines at KLGA




Go Back


Latest METAR
Local Time

KLGA 240751Z 31005KT 10SM CLR 19/11 A3003 RMK AO2 SLP168 T01890111

24/05/2018, 04:07:32

Description
Results
Delta Airlines Logo
Number of Pilots based at KLGA
0 Pilots Based here
Number of Delta Airlines Flights Departed from KLGA
2 Flights Departed
Number of Delta Airlines Flights Arrived at KLGA
3 Flights Arrived
Number of Delta Airlines Schedules Departing from KLGA
297 Schedules
Number of Delta Airlines Schedules Arriving at KLGA
292 Schedules
Number of Delta Airlines Schedules Departing from KLGA availible today
190 Schedules Today
Number of Delta Airlines Schedules Arriving at KLGA availible today
175 Schedules Today
Average Landing Rate at KLGA
-245 fpm
Delta Airlines Average Landing Rate at KLGA
-245 fpm
Total Fuel Purchased at KLGA by Delta Airlines
591.03 kgs / 1,302.98 lbs

Pilots Based at KLGA


Pilot ID
Pilot Name
Pilot Rank
No. of Flights
No. of Flying Hours
There are no pilots assigned to this hub!   Will you be the first?
Content